METAR

Station
VRMM
METAR VRMM 040700Z 22005KT 9999 SCT018TCU BKN270 31/25 Q1014 NOSIG=
VRMH
METAR VRMH 040700Z 28006KT 9999 FEW018 BKN270 32/27 Q1013=
VRMK
METAR VRMK 040700Z 12005KT 9999 FEW018 SCT130 BKN260 30/26 Q1014=
VRMT
METAR VRMT 040700Z 14005KT 9999 FEW018TCU BKN250 30/25 Q1014=
VRMG
METAR VRMG 050700Z 14007KT 9999 FEW017 FEW018CB SCT130 BKN260 29/25 Q1014 CB SSW TEMPO 5000 TSRA=
Last Updated : 2021-08-04 12:00:19

SPECI

Station
VRMM
VRMH
VRMK
VRMT
VRMG
Last Updated : 2021-08-04 12:00:19